sensor_id;sensor_type;location;lat;lon;timestamp;pressure;altitude;pressure_sealevel;temperature;humidity
18918;BME280;9591;52.742;13.650;2022-10-16T00:00:13;100652.38;;;15.06;100.00
18918;BME280;9591;52.742;13.650;2022-10-16T00:03:00;100653.34;;;15.05;100.00
18918;BME280;9591;52.742;13.650;2022-10-16T00:05:49;100655.13;;;14.88;100.00
18918;BME280;9591;52.742;13.650;2022-10-16T00:08:36;100657.88;;;15.03;100.00
18918;BME280;9591;52.742;13.650;2022-10-16T00:11:25;100649.41;;;14.95;100.00
18918;BME280;9591;52.742;13.650;2022-10-16T00:14:14;100659.38;;;14.92;100.00
18918;BME280;9591;52.742;13.650;2022-10-16T00:17:01;100659.94;;;14.98;100.00
18918;BME280;9591;52.742;13.650;2022-10-16T00:19:47;100661.34;;;14.88;100.00
18918;BME280;9591;52.742;13.650;2022-10-16T00:22:36;100668.84;;;14.80;100.00
18918;BME280;9591;52.742;13.650;2022-10-16T00:25:22;100675.38;;;14.92;100.00
18918;BME280;9591;52.742;13.650;2022-10-16T00:28:10;100676.72;;;15.00;100.00
18918;BME280;9591;52.742;13.650;2022-10-16T00:30:56;100678.44;;;14.84;100.00
18918;BME280;9591;52.742;13.650;2022-10-16T00:33:43;100680.56;;;14.95;100.00
18918;BME280;9591;52.742;13.650;2022-10-16T00:36:30;100681.72;;;14.89;100.00
18918;BME280;9591;52.742;13.650;2022-10-16T00:39:18;100669.66;;;14.82;100.00
18918;BME280;9591;52.742;13.650;2022-10-16T00:42:05;100688.47;;;14.96;100.00
18918;BME280;9591;52.742;13.650;2022-10-16T00:44:53;100692.69;;;14.83;100.00
18918;BME280;9591;52.742;13.650;2022-10-16T00:47:44;100698.91;;;14.84;100.00
18918;BME280;9591;52.742;13.650;2022-10-16T00:50:34;100694.28;;;14.87;100.00
18918;BME280;9591;52.742;13.650;2022-10-16T00:53:21;100683.13;;;14.96;100.00
18918;BME280;9591;52.742;13.650;2022-10-16T00:56:10;100675.13;;;14.79;100.00
18918;BME280;9591;52.742;13.650;2022-10-16T00:58:57;100688.81;;;14.73;100.00
18918;BME280;9591;52.742;13.650;2022-10-16T01:01:46;100684.72;;;14.66;100.00
18918;BME280;9591;52.742;13.650;2022-10-16T01:04:35;100682.41;;;14.58;100.00
18918;BME280;9591;52.742;13.650;2022-10-16T01:07:33;100689.97;;;14.67;100.00
18918;BME280;9591;52.742;13.650;2022-10-16T01:10:27;100699.56;;;14.53;100.00
18918;BME280;9591;52.742;13.650;2022-10-16T01:13:22;100705.69;;;14.55;100.00
18918;BME280;9591;52.742;13.650;2022-10-16T01:16:13;100711.66;;;14.60;100.00
18918;BME280;9591;52.742;13.650;2022-10-16T01:19:08;100701.53;;;14.49;100.00
18918;BME280;9591;52.742;13.650;2022-10-16T01:21:57;100708.06;;;14.61;100.00
18918;BME280;9591;52.742;13.650;2022-10-16T01:24:46;100711.97;;;14.54;100.00
18918;BME280;9591;52.742;13.650;2022-10-16T01:27:40;100708.94;;;14.61;100.00
18918;BME280;9591;52.742;13.650;2022-10-16T01:30:31;100706.94;;;14.48;100.00
18918;BME280;9591;52.742;13.650;2022-10-16T01:33:21;100709.44;;;14.51;100.00
18918;BME280;9591;52.742;13.650;2022-10-16T01:36:15;100714.34;;;14.60;100.00
18918;BME280;9591;52.742;13.650;2022-10-16T01:39:04;100708.63;;;14.67;100.00
18918;BME280;9591;52.742;13.650;2022-10-16T01:41:56;100707.91;;;14.64;100.00
18918;BME280;9591;52.742;13.650;2022-10-16T01:44:48;100713.25;;;14.64;100.00
18918;BME280;9591;52.742;13.650;2022-10-16T01:47:37;100714.25;;;14.61;100.00
18918;BME280;9591;52.742;13.650;2022-10-16T01:50:24;100721.03;;;14.50;100.00
18918;BME280;9591;52.742;13.650;2022-10-16T01:53:12;100730.84;;;14.49;100.00
18918;BME280;9591;52.742;13.650;2022-10-16T01:56:02;100719.03;;;14.55;100.00
18918;BME280;9591;52.742;13.650;2022-10-16T01:58:53;100715.88;;;14.47;100.00
18918;BME280;9591;52.742;13.650;2022-10-16T02:01:45;100723.63;;;14.51;100.00
18918;BME280;9591;52.742;13.650;2022-10-16T02:04:36;100722.84;;;14.49;100.00
18918;BME280;9591;52.742;13.650;2022-10-16T02:07:24;100727.34;;;14.66;100.00
18918;BME280;9591;52.742;13.650;2022-10-16T02:10:10;100735.16;;;14.52;100.00
18918;BME280;9591;52.742;13.650;2022-10-16T02:13:00;100734.28;;;14.70;100.00
18918;BME280;9591;52.742;13.650;2022-10-16T02:15:50;100736.44;;;14.79;100.00
18918;BME280;9591;52.742;13.650;2022-10-16T02:18:40;100717.59;;;14.48;100.00
18918;BME280;9591;52.742;13.650;2022-10-16T02:21:32;100743.16;;;14.52;100.00
18918;BME280;9591;52.742;13.650;2022-10-16T02:24:29;100736.81;;;14.54;100.00
18918;BME280;9591;52.742;13.650;2022-10-16T02:27:25;100744.81;;;14.54;100.00
18918;BME280;9591;52.742;13.650;2022-10-16T02:30:19;100751.28;;;14.49;100.00
18918;BME280;9591;52.742;13.650;2022-10-16T02:33:11;100749.19;;;14.55;100.00
18918;BME280;9591;52.742;13.650;2022-10-16T02:36:00;100751.22;;;14.50;100.00
18918;BME280;9591;52.742;13.650;2022-10-16T02:38:47;100762.44;;;14.38;100.00
18918;BME280;9591;52.742;13.650;2022-10-16T02:41:34;100764.91;;;14.42;100.00
18918;BME280;9591;52.742;13.650;2022-10-16T02:44:21;100769.41;;;14.40;100.00
18918;BME280;9591;52.742;13.650;2022-10-16T02:47:09;100769.56;;;14.37;100.00
18918;BME280;9591;52.742;13.650;2022-10-16T02:49:58;100769.56;;;14.37;100.00
18918;BME280;9591;52.742;13.650;2022-10-16T02:52:46;100770.75;;;14.51;100.00
18918;BME280;9591;52.742;13.650;2022-10-16T02:55:33;100760.22;;;14.48;100.00
18918;BME280;9591;52.742;13.650;2022-10-16T02:58:20;100760.00;;;14.52;100.00
18918;BME280;9591;52.742;13.650;2022-10-16T03:01:07;100777.09;;;14.48;100.00
18918;BME280;9591;52.742;13.650;2022-10-16T03:03:54;100779.81;;;14.65;100.00
18918;BME280;9591;52.742;13.650;2022-10-16T03:06:41;100780.25;;;14.56;100.00
18918;BME280;9591;52.742;13.650;2022-10-16T03:09:29;100769.66;;;14.55;100.00
18918;BME280;9591;52.742;13.650;2022-10-16T03:12:15;100774.34;;;14.50;100.00
18918;BME280;9591;52.742;13.650;2022-10-16T03:15:03;100782.47;;;14.47;100.00
18918;BME280;9591;52.742;13.650;2022-10-16T03:17:50;100773.63;;;14.46;100.00
18918;BME280;9591;52.742;13.650;2022-10-16T03:20:37;100774.63;;;14.43;100.00
18918;BME280;9591;52.742;13.650;2022-10-16T03:23:24;100791.66;;;14.39;100.00
18918;BME280;9591;52.742;13.650;2022-10-16T03:26:12;100793.75;;;14.33;100.00
18918;BME280;9591;52.742;13.650;2022-10-16T03:28:59;100797.50;;;14.29;100.00
18918;BME280;9591;52.742;13.650;2022-10-16T03:31:47;100804.84;;;14.24;100.00
18918;BME280;9591;52.742;13.650;2022-10-16T03:34:34;100793.59;;;14.17;100.00
18918;BME280;9591;52.742;13.650;2022-10-16T03:37:21;100790.00;;;14.18;100.00
18918;BME280;9591;52.742;13.650;2022-10-16T03:40:09;100783.94;;;14.15;100.00
18918;BME280;9591;52.742;13.650;2022-10-16T03:42:57;100791.28;;;14.09;100.00
18918;BME280;9591;52.742;13.650;2022-10-16T03:45:44;100800.47;;;14.02;100.00
18918;BME280;9591;52.742;13.650;2022-10-16T03:48:31;100786.56;;;13.96;100.00
18918;BME280;9591;52.742;13.650;2022-10-16T03:51:17;100800.03;;;13.93;100.00
18918;BME280;9591;52.742;13.650;2022-10-16T03:54:04;100801.09;;;13.89;100.00
18918;BME280;9591;52.742;13.650;2022-10-16T03:56:51;100812.78;;;13.86;100.00
18918;BME280;9591;52.742;13.650;2022-10-16T03:59:39;100819.16;;;13.82;100.00
18918;BME280;9591;52.742;13.650;2022-10-16T04:02:26;100828.22;;;13.78;100.00
18918;BME280;9591;52.742;13.650;2022-10-16T04:05:13;100833.75;;;13.73;100.00
18918;BME280;9591;52.742;13.650;2022-10-16T04:08:00;100839.06;;;13.73;100.00
18918;BME280;9591;52.742;13.650;2022-10-16T04:10:46;100837.34;;;13.72;100.00
18918;BME280;9591;52.742;13.650;2022-10-16T04:13:33;100846.19;;;13.73;100.00
18918;BME280;9591;52.742;13.650;2022-10-16T04:16:21;100846.31;;;13.70;100.00
18918;BME280;9591;52.742;13.650;2022-10-16T04:19:08;100840.00;;;13.72;100.00
18918;BME280;9591;52.742;13.650;2022-10-16T04:21:55;100840.75;;;13.76;100.00
18918;BME280;9591;52.742;13.650;2022-10-16T04:24:42;100851.44;;;13.74;100.00
18918;BME280;9591;52.742;13.650;2022-10-16T04:27:29;100839.06;;;13.73;100.00
18918;BME280;9591;52.742;13.650;2022-10-16T04:30:16;100842.19;;;13.63;100.00
18918;BME280;9591;52.742;13.650;2022-10-16T04:33:04;100828.16;;;13.59;100.00
18918;BME280;9591;52.742;13.650;2022-10-16T04:35:56;100836.34;;;13.55;100.00
18918;BME280;9591;52.742;13.650;2022-10-16T04:38:43;100838.00;;;13.57;100.00
18918;BME280;9591;52.742;13.650;2022-10-16T04:41:30;100840.72;;;13.56;100.00
18918;BME280;9591;52.742;13.650;2022-10-16T04:44:17;100845.31;;;13.52;100.00
18918;BME280;9591;52.742;13.650;2022-10-16T04:47:04;100852.56;;;13.49;100.00
18918;BME280;9591;52.742;13.650;2022-10-16T04:49:52;100852.44;;;13.52;100.00
18918;BME280;9591;52.742;13.650;2022-10-16T04:52:39;100863.06;;;13.52;100.00
18918;BME280;9591;52.742;13.650;2022-10-16T04:55:26;100865.06;;;13.47;100.00
18918;BME280;9591;52.742;13.650;2022-10-16T04:58:13;100854.22;;;13.51;100.00
18918;BME280;9591;52.742;13.650;2022-10-16T05:00:59;100848.97;;;13.50;100.00
18918;BME280;9591;52.742;13.650;2022-10-16T05:03:46;100842.97;;;13.44;100.00
18918;BME280;9591;52.742;13.650;2022-10-16T05:06:34;100843.09;;;13.41;100.00
18918;BME280;9591;52.742;13.650;2022-10-16T05:09:21;100841.91;;;13.49;100.00
18918;BME280;9591;52.742;13.650;2022-10-16T05:12:08;100849.28;;;13.42;100.00
18918;BME280;9591;52.742;13.650;2022-10-16T05:14:55;100851.69;;;13.48;100.00
18918;BME280;9591;52.742;13.650;2022-10-16T05:17:44;100865.19;;;13.43;100.00
18918;BME280;9591;52.742;13.650;2022-10-16T05:20:30;100871.38;;;13.44;100.00
18918;BME280;9591;52.742;13.650;2022-10-16T05:23:18;100877.75;;;13.40;100.00
18918;BME280;9591;52.742;13.650;2022-10-16T05:26:05;100878.44;;;13.45;100.00
18918;BME280;9591;52.742;13.650;2022-10-16T05:28:52;100887.47;;;13.41;100.00
18918;BME280;9591;52.742;13.650;2022-10-16T05:31:39;100888.41;;;13.40;100.00
18918;BME280;9591;52.742;13.650;2022-10-16T05:34:26;100890.25;;;13.38;100.00
18918;BME280;9591;52.742;13.650;2022-10-16T05:37:13;100879.78;;;13.33;100.00
18918;BME280;9591;52.742;13.650;2022-10-16T05:40:01;100881.22;;;13.42;100.00
18918;BME280;9591;52.742;13.650;2022-10-16T05:42:48;100877.88;;;13.37;100.00
18918;BME280;9591;52.742;13.650;2022-10-16T05:45:34;100882.16;;;13.41;100.00
18918;BME280;9591;52.742;13.650;2022-10-16T05:48:21;100893.47;;;13.46;100.00
18918;BME280;9591;52.742;13.650;2022-10-16T05:51:12;100895.25;;;13.45;100.00
18918;BME280;9591;52.742;13.650;2022-10-16T05:53:59;100903.19;;;13.47;100.00
18918;BME280;9591;52.742;13.650;2022-10-16T05:56:48;100905.66;;;13.52;100.00
18918;BME280;9591;52.742;13.650;2022-10-16T05:59:34;100903.72;;;13.55;100.00
18918;BME280;9591;52.742;13.650;2022-10-16T06:02:21;100910.72;;;13.58;100.00
18918;BME280;9591;52.742;13.650;2022-10-16T06:05:08;100908.25;;;13.53;100.00
18918;BME280;9591;52.742;13.650;2022-10-16T06:07:55;100902.66;;;13.59;100.00
18918;BME280;9591;52.742;13.650;2022-10-16T06:10:42;100908.84;;;13.60;100.00
18918;BME280;9591;52.742;13.650;2022-10-16T06:13:31;100912.31;;;13.62;100.00
18918;BME280;9591;52.742;13.650;2022-10-16T06:16:18;100917.50;;;13.65;100.00
18918;BME280;9591;52.742;13.650;2022-10-16T06:19:04;100911.19;;;13.67;100.00
18918;BME280;9591;52.742;13.650;2022-10-16T06:21:53;100917.00;;;13.77;100.00
18918;BME280;9591;52.742;13.650;2022-10-16T06:24:40;100923.19;;;13.77;100.00
18918;BME280;9591;52.742;13.650;2022-10-16T06:27:27;100922.88;;;13.85;100.00
18918;BME280;9591;52.742;13.650;2022-10-16T06:30:15;100925.59;;;13.84;100.00
18918;BME280;9591;52.742;13.650;2022-10-16T06:33:01;100906.59;;;13.91;100.00
18918;BME280;9591;52.742;13.650;2022-10-16T06:35:48;100919.66;;;13.97;100.00
18918;BME280;9591;52.742;13.650;2022-10-16T06:38:35;100918.38;;;14.06;100.00
18918;BME280;9591;52.742;13.650;2022-10-16T06:41:23;100932.44;;;14.09;100.00
18918;BME280;9591;52.742;13.650;2022-10-16T06:44:09;100930.97;;;14.23;100.00
18918;BME280;9591;52.742;13.650;2022-10-16T06:46:58;100932.00;;;14.39;100.00
18918;BME280;9591;52.742;13.650;2022-10-16T06:49:44;100943.53;;;14.39;100.00
18918;BME280;9591;52.742;13.650;2022-10-16T06:52:38;100954.88;;;14.45;100.00
18918;BME280;9591;52.742;13.650;2022-10-16T06:55:25;100963.69;;;14.47;100.00
18918;BME280;9591;52.742;13.650;2022-10-16T06:58:12;100966.88;;;14.55;100.00
18918;BME280;9591;52.742;13.650;2022-10-16T07:00:59;100974.59;;;14.61;100.00
18918;BME280;9591;52.742;13.650;2022-10-16T07:03:47;100965.72;;;14.79;100.00
18918;BME280;9591;52.742;13.650;2022-10-16T07:06:34;100973.25;;;14.90;100.00
18918;BME280;9591;52.742;13.650;2022-10-16T07:09:21;100968.06;;;15.05;100.00
18918;BME280;9591;52.742;13.650;2022-10-16T07:12:07;100964.81;;;15.18;100.00
18918;BME280;9591;52.742;13.650;2022-10-16T07:14:54;100969.28;;;15.17;100.00
18918;BME280;9591;52.742;13.650;2022-10-16T07:17:41;100969.94;;;15.22;100.00
18918;BME280;9591;52.742;13.650;2022-10-16T07:20:29;100984.66;;;15.31;100.00
18918;BME280;9591;52.742;13.650;2022-10-16T07:23:16;100994.22;;;15.35;100.00
18918;BME280;9591;52.742;13.650;2022-10-16T07:26:03;100996.97;;;15.52;100.00
18918;BME280;9591;52.742;13.650;2022-10-16T07:28:50;101006.63;;;15.55;100.00
18918;BME280;9591;52.742;13.650;2022-10-16T07:31:38;101012.03;;;15.53;100.00
18918;BME280;9591;52.742;13.650;2022-10-16T07:34:25;101006.91;;;15.49;100.00
18918;BME280;9591;52.742;13.650;2022-10-16T07:37:14;100990.75;;;15.52;100.00
18918;BME280;9591;52.742;13.650;2022-10-16T07:40:01;101001.16;;;15.58;100.00
18918;BME280;9591;52.742;13.650;2022-10-16T07:42:47;101011.63;;;15.80;100.00
18918;BME280;9591;52.742;13.650;2022-10-16T07:45:34;101019.66;;;15.80;100.00
18918;BME280;9591;52.742;13.650;2022-10-16T07:48:22;101017.41;;;15.70;100.00
18918;BME280;9591;52.742;13.650;2022-10-16T07:51:11;101012.28;;;16.02;100.00
18918;BME280;9591;52.742;13.650;2022-10-16T07:54:00;101016.31;;;16.11;100.00
18918;BME280;9591;52.742;13.650;2022-10-16T07:56:47;101022.28;;;15.98;100.00
18918;BME280;9591;52.742;13.650;2022-10-16T07:59:33;101016.84;;;16.00;100.00
18918;BME280;9591;52.742;13.650;2022-10-16T08:02:20;101004.81;;;15.91;100.00
18918;BME280;9591;52.742;13.650;2022-10-16T08:05:08;100996.88;;;15.90;100.00
18918;BME280;9591;52.742;13.650;2022-10-16T08:07:55;101004.72;;;15.76;100.00
18918;BME280;9591;52.742;13.650;2022-10-16T08:10:44;101005.19;;;15.84;100.00
18918;BME280;9591;52.742;13.650;2022-10-16T08:13:31;101012.13;;;15.88;100.00
18918;BME280;9591;52.742;13.650;2022-10-16T08:16:18;101021.84;;;15.89;100.00
18918;BME280;9591;52.742;13.650;2022-10-16T08:19:05;101033.81;;;15.99;100.00
18918;BME280;9591;52.742;13.650;2022-10-16T08:21:52;101028.19;;;16.05;100.00
18918;BME280;9591;52.742;13.650;2022-10-16T08:24:39;101028.81;;;16.10;100.00
18918;BME280;9591;52.742;13.650;2022-10-16T08:27:32;101035.09;;;16.09;100.00
18918;BME280;9591;52.742;13.650;2022-10-16T08:30:20;101031.94;;;16.01;100.00
18918;BME280;9591;52.742;13.650;2022-10-16T08:33:06;101017.78;;;15.99;100.00
18918;BME280;9591;52.742;13.650;2022-10-16T08:35:53;101027.47;;;16.36;100.00
18918;BME280;9591;52.742;13.650;2022-10-16T08:38:40;101021.81;;;16.42;100.00
18918;BME280;9591;52.742;13.650;2022-10-16T08:41:36;101026.91;;;16.47;100.00
18918;BME280;9591;52.742;13.650;2022-10-16T08:44:40;101032.72;;;16.55;100.00
18918;BME280;9591;52.742;13.650;2022-10-16T08:47:39;101039.91;;;17.04;100.00
18918;BME280;9591;52.742;13.650;2022-10-16T08:50:31;101030.41;;;16.99;100.00
18918;BME280;9591;52.742;13.650;2022-10-16T08:53:23;101039.13;;;17.02;100.00
18918;BME280;9591;52.742;13.650;2022-10-16T08:56:12;101041.72;;;17.35;100.00
18918;BME280;9591;52.742;13.650;2022-10-16T08:58:59;101045.38;;;17.50;100.00
18918;BME280;9591;52.742;13.650;2022-10-16T09:01:50;101039.59;;;17.42;100.00
18918;BME280;9591;52.742;13.650;2022-10-16T09:04:51;101033.72;;;17.35;100.00
18918;BME280;9591;52.742;13.650;2022-10-16T09:07:49;101039.16;;;17.50;100.00
18918;BME280;9591;52.742;13.650;2022-10-16T09:10:47;101044.59;;;17.48;100.00
18918;BME280;9591;52.742;13.650;2022-10-16T09:13:48;101048.00;;;17.67;100.00
18918;BME280;9591;52.742;13.650;2022-10-16T09:16:42;101059.31;;;17.73;100.00
18918;BME280;9591;52.742;13.650;2022-10-16T09:19:45;101049.91;;;17.81;100.00
18918;BME280;9591;52.742;13.650;2022-10-16T09:22:33;101054.66;;;17.92;100.00
18918;BME280;9591;52.742;13.650;2022-10-16T09:25:23;101056.63;;;18.04;100.00
18918;BME280;9591;52.742;13.650;2022-10-16T09:28:16;101059.63;;;18.14;100.00
18918;BME280;9591;52.742;13.650;2022-10-16T09:31:03;101061.63;;;18.10;100.00
18918;BME280;9591;52.742;13.650;2022-10-16T09:33:53;101064.56;;;18.06;100.00
18918;BME280;9591;52.742;13.650;2022-10-16T09:36:44;101064.47;;;18.07;100.00
18918;BME280;9591;52.742;13.650;2022-10-16T09:39:44;101064.41;;;17.93;100.00
18918;BME280;9591;52.742;13.650;2022-10-16T09:42:33;101075.72;;;17.98;100.00
18918;BME280;9591;52.742;13.650;2022-10-16T09:45:23;101076.94;;;18.08;100.00
18918;BME280;9591;52.742;13.650;2022-10-16T09:48:12;101071.31;;;17.97;100.00
18918;BME280;9591;52.742;13.650;2022-10-16T09:51:01;101079.59;;;18.08;100.00
18918;BME280;9591;52.742;13.650;2022-10-16T09:53:54;101095.09;;;18.33;100.00
18918;BME280;9591;52.742;13.650;2022-10-16T09:56:41;101095.31;;;18.44;100.00
18918;BME280;9591;52.742;13.650;2022-10-16T09:59:31;101078.97;;;18.49;100.00
18918;BME280;9591;52.742;13.650;2022-10-16T10:02:29;101082.91;;;18.57;100.00
18918;BME280;9591;52.742;13.650;2022-10-16T10:05:21;101075.16;;;18.53;100.00
18918;BME280;9591;52.742;13.650;2022-10-16T10:08:15;101078.28;;;18.45;100.00
18918;BME280;9591;52.742;13.650;2022-10-16T10:11:06;101095.00;;;18.34;100.00
18918;BME280;9591;52.742;13.650;2022-10-16T10:14:04;101093.69;;;18.42;100.00
18918;BME280;9591;52.742;13.650;2022-10-16T10:16:52;101094.06;;;18.35;100.00
18918;BME280;9591;52.742;13.650;2022-10-16T10:19:42;101093.75;;;18.56;100.00
18918;BME280;9591;52.742;13.650;2022-10-16T10:22:39;101093.75;;;18.56;100.00
18918;BME280;9591;52.742;13.650;2022-10-16T10:25:45;101104.16;;;18.46;100.00
18918;BME280;9591;52.742;13.650;2022-10-16T10:28:47;101108.69;;;18.60;100.00
18918;BME280;9591;52.742;13.650;2022-10-16T10:31:44;101112.59;;;18.70;100.00
18918;BME280;9591;52.742;13.650;2022-10-16T10:35:00;101112.00;;;18.65;100.00
18918;BME280;9591;52.742;13.650;2022-10-16T10:38:06;101126.38;;;18.64;100.00
18918;BME280;9591;52.742;13.650;2022-10-16T10:41:14;101128.22;;;18.78;100.00
18918;BME280;9591;52.742;13.650;2022-10-16T10:44:16;101125.41;;;18.95;100.00
18918;BME280;9591;52.742;13.650;2022-10-16T10:47:15;101113.13;;;19.19;100.00
18918;BME280;9591;52.742;13.650;2022-10-16T10:50:14;101124.91;;;19.17;100.00
18918;BME280;9591;52.742;13.650;2022-10-16T10:53:11;101120.13;;;19.22;100.00
18918;BME280;9591;52.742;13.650;2022-10-16T10:56:14;101118.50;;;19.19;100.00
18918;BME280;9591;52.742;13.650;2022-10-16T10:59:09;101114.56;;;19.25;100.00
18918;BME280;9591;52.742;13.650;2022-10-16T11:02:12;101113.69;;;19.10;100.00
18918;BME280;9591;52.742;13.650;2022-10-16T11:08:22;101119.75;;;19.28;100.00
18918;BME280;9591;52.742;13.650;2022-10-16T11:11:16;101122.25;;;19.31;100.00
18918;BME280;9591;52.742;13.650;2022-10-16T11:14:12;101114.19;;;19.17;100.00
18918;BME280;9591;52.742;13.650;2022-10-16T11:17:04;101120.22;;;19.20;100.00
18918;BME280;9591;52.742;13.650;2022-10-16T11:19:56;101121.38;;;19.30;100.00
18918;BME280;9591;52.742;13.650;2022-10-16T11:22:48;101126.66;;;19.46;100.00
18918;BME280;9591;52.742;13.650;2022-10-16T11:25:39;101123.50;;;19.40;100.00
18918;BME280;9591;52.742;13.650;2022-10-16T11:28:29;101126.75;;;19.30;100.00
18918;BME280;9591;52.742;13.650;2022-10-16T11:31:26;101129.25;;;19.33;100.00
18918;BME280;9591;52.742;13.650;2022-10-16T11:34:19;101119.44;;;19.18;100.00
18918;BME280;9591;52.742;13.650;2022-10-16T11:37:11;101125.13;;;19.28;100.00
18918;BME280;9591;52.742;13.650;2022-10-16T11:40:10;101126.25;;;19.24;100.00
18918;BME280;9591;52.742;13.650;2022-10-16T11:43:10;101120.03;;;19.23;100.00
18918;BME280;9591;52.742;13.650;2022-10-16T11:46:05;101112.34;;;19.17;100.00
18918;BME280;9591;52.742;13.650;2022-10-16T11:49:03;101116.66;;;19.20;100.00
18918;BME280;9591;52.742;13.650;2022-10-16T11:52:00;101123.00;;;19.19;100.00
18918;BME280;9591;52.742;13.650;2022-10-16T11:54:53;101112.34;;;19.17;100.00
18918;BME280;9591;52.742;13.650;2022-10-16T11:57:44;101122.91;;;19.06;100.00
18918;BME280;9591;52.742;13.650;2022-10-16T12:00:39;101125.69;;;19.05;100.00
18918;BME280;9591;52.742;13.650;2022-10-16T12:03:29;101124.34;;;19.12;100.00
18918;BME280;9591;52.742;13.650;2022-10-16T12:06:31;101130.00;;;18.93;100.00
18918;BME280;9591;52.742;13.650;2022-10-16T12:09:23;101134.03;;;19.00;100.00
18918;BME280;9591;52.742;13.650;2022-10-16T12:12:25;101139.22;;;19.03;100.00
18918;BME280;9591;52.742;13.650;2022-10-16T12:15:23;101140.16;;;19.02;100.00
18918;BME280;9591;52.742;13.650;2022-10-16T12:18:30;101143.53;;;19.06;100.00
18918;BME280;9591;52.742;13.650;2022-10-16T12:21:17;101148.78;;;19.21;100.00
18918;BME280;9591;52.742;13.650;2022-10-16T12:24:21;101156.38;;;19.29;100.00
18918;BME280;9591;52.742;13.650;2022-10-16T12:27:24;101153.78;;;19.13;100.00
18918;BME280;9591;52.742;13.650;2022-10-16T12:30:20;101156.94;;;19.06;100.00
18918;BME280;9591;52.742;13.650;2022-10-16T12:33:19;101159.81;;;19.03;100.00
18918;BME280;9591;52.742;13.650;2022-10-16T12:36:13;101154.19;;;18.77;100.00
18918;BME280;9591;52.742;13.650;2022-10-16T12:39:01;101157.47;;;18.82;100.00
18918;BME280;9591;52.742;13.650;2022-10-16T12:42:00;101165.63;;;18.81;100.00
18918;BME280;9591;52.742;13.650;2022-10-16T12:44:47;101173.88;;;18.62;100.00
18918;BME280;9591;52.742;13.650;2022-10-16T12:47:48;101164.16;;;18.59;100.00
18918;BME280;9591;52.742;13.650;2022-10-16T12:50:37;101161.66;;;18.72;100.00
18918;BME280;9591;52.742;13.650;2022-10-16T12:53:26;101153.69;;;18.71;100.00
18918;BME280;9591;52.742;13.650;2022-10-16T12:56:19;101175.88;;;18.88;100.00
18918;BME280;9591;52.742;13.650;2022-10-16T12:59:18;101182.91;;;18.91;100.00
18918;BME280;9591;52.742;13.650;2022-10-16T13:02:22;101191.91;;;18.90;100.00
18918;BME280;9591;52.742;13.650;2022-10-16T13:05:26;101185.13;;;18.98;100.00
18918;BME280;9591;52.742;13.650;2022-10-16T13:08:31;101180.72;;;18.97;100.00
18918;BME280;9591;52.742;13.650;2022-10-16T13:11:29;101184.53;;;19.08;100.00
18918;BME280;9591;52.742;13.650;2022-10-16T13:14:39;101181.84;;;19.08;100.00
18918;BME280;9591;52.742;13.650;2022-10-16T13:17:35;101189.16;;;19.20;100.00
18918;BME280;9591;52.742;13.650;2022-10-16T13:20:30;101196.25;;;19.21;100.00
18918;BME280;9591;52.742;13.650;2022-10-16T13:23:24;101202.19;;;18.97;100.00
18918;BME280;9591;52.742;13.650;2022-10-16T13:26:22;101209.88;;;19.04;99.67
18918;BME280;9591;52.742;13.650;2022-10-16T13:29:10;101200.63;;;18.93;100.00
18918;BME280;9591;52.742;13.650;2022-10-16T13:31:59;101208.69;;;19.08;100.00
18918;BME280;9591;52.742;13.650;2022-10-16T13:34:48;101213.16;;;19.23;100.00
18918;BME280;9591;52.742;13.650;2022-10-16T13:37:35;101219.50;;;19.36;97.50
18918;BME280;9591;52.742;13.650;2022-10-16T13:40:24;101212.22;;;19.38;93.23
18918;BME280;9591;52.742;13.650;2022-10-16T13:43:11;101218.84;;;19.47;98.06
18918;BME280;9591;52.742;13.650;2022-10-16T13:46:00;101212.59;;;19.46;100.00
18918;BME280;9591;52.742;13.650;2022-10-16T13:48:58;101229.69;;;19.45;94.32
18918;BME280;9591;52.742;13.650;2022-10-16T13:51:54;101226.19;;;19.29;98.24
18918;BME280;9591;52.742;13.650;2022-10-16T13:54:41;101224.28;;;19.31;96.41
18918;BME280;9591;52.742;13.650;2022-10-16T13:57:28;101232.63;;;19.26;91.93
18918;BME280;9591;52.742;13.650;2022-10-16T14:00:20;101227.88;;;19.16;93.44
18918;BME280;9591;52.742;13.650;2022-10-16T14:03:13;101233.34;;;19.14;93.83
18918;BME280;9591;52.742;13.650;2022-10-16T14:06:05;101234.41;;;19.12;94.36
18918;BME280;9591;52.742;13.650;2022-10-16T14:08:59;101224.25;;;19.03;89.39
18918;BME280;9591;52.742;13.650;2022-10-16T14:11:49;101231.53;;;19.01;93.69
18918;BME280;9591;52.742;13.650;2022-10-16T14:14:41;101229.13;;;18.96;92.56
18918;BME280;9591;52.742;13.650;2022-10-16T14:17:29;101237.16;;;18.96;93.75
18918;BME280;9591;52.742;13.650;2022-10-16T14:20:18;101234.56;;;18.94;93.92
18918;BME280;9591;52.742;13.650;2022-10-16T14:23:20;101248.03;;;18.79;96.88
18918;BME280;9591;52.742;13.650;2022-10-16T14:26:16;101251.09;;;19.03;92.29
18918;BME280;9591;52.742;13.650;2022-10-16T14:29:10;101256.81;;;18.96;94.67
18918;BME280;9591;52.742;13.650;2022-10-16T14:31:59;101255.81;;;18.83;96.42
18918;BME280;9591;52.742;13.650;2022-10-16T14:34:53;101260.75;;;18.75;96.42
18918;BME280;9591;52.742;13.650;2022-10-16T14:37:39;101255.38;;;18.75;94.89
18918;BME280;9591;52.742;13.650;2022-10-16T14:40:29;101273.03;;;18.63;99.28
18918;BME280;9591;52.742;13.650;2022-10-16T14:43:21;101269.38;;;18.49;99.78